sensor_id;sensor_type;location;lat;lon;timestamp;P1;durP1;ratioP1;P2;durP2;ratioP2
45867;SDS011;31582;45.490;7.860;2023-03-01T00:01:14;41.70;;;28.77;;
45867;SDS011;31582;45.490;7.860;2023-03-01T00:03:43;40.60;;;26.65;;
45867;SDS011;31582;45.490;7.860;2023-03-01T00:06:10;41.90;;;27.05;;
45867;SDS011;31582;45.490;7.860;2023-03-01T00:08:37;36.23;;;24.47;;
45867;SDS011;31582;45.490;7.860;2023-03-01T00:11:05;35.70;;;25.20;;
45867;SDS011;31582;45.490;7.860;2023-03-01T00:13:40;36.45;;;25.25;;
45867;SDS011;31582;45.490;7.860;2023-03-01T00:16:13;38.03;;;25.58;;
45867;SDS011;31582;45.490;7.860;2023-03-01T00:18:44;39.80;;;26.00;;
45867;SDS011;31582;45.490;7.860;2023-03-01T00:21:12;38.60;;;26.15;;
45867;SDS011;31582;45.490;7.860;2023-03-01T00:23:39;42.08;;;28.17;;
45867;SDS011;31582;45.490;7.860;2023-03-01T00:26:10;41.17;;;28.30;;
45867;SDS011;31582;45.490;7.860;2023-03-01T00:28:38;47.38;;;30.42;;
45867;SDS011;31582;45.490;7.860;2023-03-01T00:31:06;51.42;;;30.48;;
45867;SDS011;31582;45.490;7.860;2023-03-01T00:33:34;41.60;;;29.38;;
45867;SDS011;31582;45.490;7.860;2023-03-01T00:36:02;44.50;;;28.05;;
45867;SDS011;31582;45.490;7.860;2023-03-01T00:38:30;39.65;;;27.08;;
45867;SDS011;31582;45.490;7.860;2023-03-01T00:41:06;37.25;;;25.88;;
45867;SDS011;31582;45.490;7.860;2023-03-01T00:43:36;39.97;;;25.92;;
45867;SDS011;31582;45.490;7.860;2023-03-01T00:46:07;38.47;;;25.42;;
45867;SDS011;31582;45.490;7.860;2023-03-01T00:48:42;37.50;;;25.23;;
45867;SDS011;31582;45.490;7.860;2023-03-01T00:51:14;36.23;;;25.13;;
45867;SDS011;31582;45.490;7.860;2023-03-01T00:53:43;40.58;;;26.05;;
45867;SDS011;31582;45.490;7.860;2023-03-01T00:56:11;39.40;;;27.80;;
45867;SDS011;31582;45.490;7.860;2023-03-01T00:58:39;35.47;;;24.85;;
45867;SDS011;31582;45.490;7.860;2023-03-01T01:01:07;35.25;;;24.00;;
45867;SDS011;31582;45.490;7.860;2023-03-01T01:03:47;36.33;;;24.83;;
45867;SDS011;31582;45.490;7.860;2023-03-01T01:06:39;37.40;;;25.05;;
45867;SDS011;31582;45.490;7.860;2023-03-01T01:09:11;37.05;;;25.48;;
45867;SDS011;31582;45.490;7.860;2023-03-01T01:11:46;37.20;;;25.75;;
45867;SDS011;31582;45.490;7.860;2023-03-01T01:14:14;34.80;;;23.70;;
45867;SDS011;31582;45.490;7.860;2023-03-01T01:16:41;36.90;;;24.45;;
45867;SDS011;31582;45.490;7.860;2023-03-01T01:19:09;35.00;;;24.08;;
45867;SDS011;31582;45.490;7.860;2023-03-01T01:21:40;33.20;;;24.05;;
45867;SDS011;31582;45.490;7.860;2023-03-01T01:24:09;36.15;;;25.05;;
45867;SDS011;31582;45.490;7.860;2023-03-01T01:26:37;34.90;;;23.00;;
45867;SDS011;31582;45.490;7.860;2023-03-01T01:29:04;33.33;;;22.27;;
45867;SDS011;31582;45.490;7.860;2023-03-01T01:31:32;37.45;;;25.13;;
45867;SDS011;31582;45.490;7.860;2023-03-01T01:34:01;39.55;;;25.73;;
45867;SDS011;31582;45.490;7.860;2023-03-01T01:36:29;35.55;;;24.40;;
45867;SDS011;31582;45.490;7.860;2023-03-01T01:38:57;34.43;;;23.47;;
45867;SDS011;31582;45.490;7.860;2023-03-01T01:41:24;33.58;;;23.67;;
45867;SDS011;31582;45.490;7.860;2023-03-01T01:49:36;38.20;;;26.52;;
45867;SDS011;31582;45.490;7.860;2023-03-01T01:52:19;36.95;;;25.27;;
45867;SDS011;31582;45.490;7.860;2023-03-01T01:54:55;35.00;;;24.73;;
45867;SDS011;31582;45.490;7.860;2023-03-01T01:57:38;35.30;;;23.63;;
45867;SDS011;31582;45.490;7.860;2023-03-01T02:00:09;34.03;;;22.25;;
45867;SDS011;31582;45.490;7.860;2023-03-01T08:46:31;23.40;;;17.63;;
45867;SDS011;31582;45.490;7.860;2023-03-01T08:49:00;21.00;;;17.10;;
45867;SDS011;31582;45.490;7.860;2023-03-01T08:51:30;21.73;;;16.33;;
45867;SDS011;31582;45.490;7.860;2023-03-01T08:54:03;22.52;;;17.60;;
45867;SDS011;31582;45.490;7.860;2023-03-01T08:56:31;21.70;;;16.35;;
45867;SDS011;31582;45.490;7.860;2023-03-01T08:58:59;23.92;;;17.10;;
45867;SDS011;31582;45.490;7.860;2023-03-01T09:01:26;24.20;;;17.40;;
45867;SDS011;31582;45.490;7.860;2023-03-01T09:03:53;27.80;;;19.25;;
45867;SDS011;31582;45.490;7.860;2023-03-01T09:06:20;25.10;;;18.88;;
45867;SDS011;31582;45.490;7.860;2023-03-01T09:08:48;20.50;;;16.00;;
45867;SDS011;31582;45.490;7.860;2023-03-01T09:11:17;24.50;;;15.55;;
45867;SDS011;31582;45.490;7.860;2023-03-01T09:13:46;20.53;;;15.43;;
45867;SDS011;31582;45.490;7.860;2023-03-01T09:16:15;23.10;;;17.02;;
45867;SDS011;31582;45.490;7.860;2023-03-01T09:18:44;26.10;;;17.97;;
45867;SDS011;31582;45.490;7.860;2023-03-01T09:21:13;26.42;;;19.67;;
45867;SDS011;31582;45.490;7.860;2023-03-01T09:23:42;27.23;;;19.75;;
45867;SDS011;31582;45.490;7.860;2023-03-01T09:26:12;25.48;;;19.42;;
45867;SDS011;31582;45.490;7.860;2023-03-01T09:28:42;25.50;;;18.97;;
45867;SDS011;31582;45.490;7.860;2023-03-01T09:31:10;30.48;;;21.77;;
45867;SDS011;31582;45.490;7.860;2023-03-01T09:33:39;27.38;;;19.88;;
45867;SDS011;31582;45.490;7.860;2023-03-01T09:36:10;24.02;;;18.35;;
45867;SDS011;31582;45.490;7.860;2023-03-01T09:38:39;27.77;;;19.50;;
45867;SDS011;31582;45.490;7.860;2023-03-01T09:44:00;28.60;;;19.83;;
45867;SDS011;31582;45.490;7.860;2023-03-01T09:46:43;26.23;;;20.00;;
45867;SDS011;31582;45.490;7.860;2023-03-01T09:49:19;24.52;;;19.08;;
45867;SDS011;31582;45.490;7.860;2023-03-01T09:51:56;23.80;;;17.42;;
45867;SDS011;31582;45.490;7.860;2023-03-01T09:54:26;23.52;;;17.27;;
45867;SDS011;31582;45.490;7.860;2023-03-01T10:02:38;22.55;;;14.90;;
45867;SDS011;31582;45.490;7.860;2023-03-01T10:05:13;21.63;;;16.00;;
45867;SDS011;31582;45.490;7.860;2023-03-01T10:10:52;19.00;;;14.25;;
45867;SDS011;31582;45.490;7.860;2023-03-01T10:16:10;21.20;;;15.23;;
45867;SDS011;31582;45.490;7.860;2023-03-01T10:18:41;21.17;;;15.20;;
45867;SDS011;31582;45.490;7.860;2023-03-01T10:23:42;24.88;;;18.60;;
45867;SDS011;31582;45.490;7.860;2023-03-01T10:26:12;22.85;;;17.63;;
45867;SDS011;31582;45.490;7.860;2023-03-01T10:29:09;20.38;;;15.82;;
45867;SDS011;31582;45.490;7.860;2023-03-01T10:34:10;20.57;;;15.00;;
45867;SDS011;31582;45.490;7.860;2023-03-01T10:36:41;20.23;;;15.10;;
45867;SDS011;31582;45.490;7.860;2023-03-01T10:39:13;20.83;;;16.13;;
45867;SDS011;31582;45.490;7.860;2023-03-01T10:42:01;21.75;;;17.27;;
45867;SDS011;31582;45.490;7.860;2023-03-01T10:47:15;26.10;;;15.40;;
45867;SDS011;31582;45.490;7.860;2023-03-01T10:50:05;17.70;;;13.65;;
45867;SDS011;31582;45.490;7.860;2023-03-01T10:52:43;20.38;;;14.48;;
45867;SDS011;31582;45.490;7.860;2023-03-01T10:55:33;18.77;;;14.05;;
45867;SDS011;31582;45.490;7.860;2023-03-01T10:58:06;19.48;;;14.40;;
45867;SDS011;31582;45.490;7.860;2023-03-01T11:00:45;19.65;;;14.27;;
45867;SDS011;31582;45.490;7.860;2023-03-01T11:03:26;20.90;;;14.70;;
45867;SDS011;31582;45.490;7.860;2023-03-01T11:08:44;20.33;;;14.73;;
45867;SDS011;31582;45.490;7.860;2023-03-01T11:13:53;20.08;;;14.57;;
45867;SDS011;31582;45.490;7.860;2023-03-01T11:16:35;19.95;;;14.63;;
45867;SDS011;31582;45.490;7.860;2023-03-01T11:19:14;21.13;;;15.60;;
45867;SDS011;31582;45.490;7.860;2023-03-01T11:21:50;23.80;;;16.27;;
45867;SDS011;31582;45.490;7.860;2023-03-01T11:24:29;20.48;;;15.38;;
45867;SDS011;31582;45.490;7.860;2023-03-01T11:27:13;24.60;;;16.83;;
45867;SDS011;31582;45.490;7.860;2023-03-01T11:29:45;25.98;;;16.02;;
45867;SDS011;31582;45.490;7.860;2023-03-01T11:32:18;25.20;;;17.27;;
45867;SDS011;31582;45.490;7.860;2023-03-01T11:34:54;23.23;;;17.08;;
45867;SDS011;31582;45.490;7.860;2023-03-01T11:37:42;23.83;;;17.47;;
45867;SDS011;31582;45.490;7.860;2023-03-01T11:46:24;23.42;;;16.70;;
45867;SDS011;31582;45.490;7.860;2023-03-01T11:48:50;23.70;;;17.85;;
45867;SDS011;31582;45.490;7.860;2023-03-01T12:08:10;27.08;;;19.67;;
45867;SDS011;31582;45.490;7.860;2023-03-01T12:22:09;34.13;;;23.58;;
45867;SDS011;31582;45.490;7.860;2023-03-01T12:24:55;29.35;;;20.80;;
45867;SDS011;31582;45.490;7.860;2023-03-01T12:41:27;32.55;;;22.83;;
45867;SDS011;31582;45.490;7.860;2023-03-01T12:50:17;34.42;;;24.45;;
45867;SDS011;31582;45.490;7.860;2023-03-01T12:52:47;34.30;;;24.33;;
45867;SDS011;31582;45.490;7.860;2023-03-01T12:55:26;36.65;;;25.50;;
45867;SDS011;31582;45.490;7.860;2023-03-01T12:58:28;33.20;;;23.80;;
45867;SDS011;31582;45.490;7.860;2023-03-01T13:01:03;31.27;;;22.23;;
45867;SDS011;31582;45.490;7.860;2023-03-01T13:09:37;34.35;;;23.67;;
45867;SDS011;31582;45.490;7.860;2023-03-01T13:17:50;33.63;;;24.20;;
45867;SDS011;31582;45.490;7.860;2023-03-01T13:20:20;32.78;;;23.50;;
45867;SDS011;31582;45.490;7.860;2023-03-01T13:23:12;33.83;;;24.48;;
45867;SDS011;31582;45.490;7.860;2023-03-01T13:31:01;30.83;;;23.38;;
45867;SDS011;31582;45.490;7.860;2023-03-01T13:35:57;33.55;;;23.42;;
45867;SDS011;31582;45.490;7.860;2023-03-01T13:41:15;35.50;;;25.00;;
45867;SDS011;31582;45.490;7.860;2023-03-01T13:44:11;33.60;;;23.45;;
45867;SDS011;31582;45.490;7.860;2023-03-01T13:46:50;32.75;;;23.08;;
45867;SDS011;31582;45.490;7.860;2023-03-01T13:57:56;29.55;;;21.45;;
45867;SDS011;31582;45.490;7.860;2023-03-01T14:00:26;30.33;;;21.45;;
45867;SDS011;31582;45.490;7.860;2023-03-01T14:02:59;27.83;;;20.90;;
45867;SDS011;31582;45.490;7.860;2023-03-01T14:06:06;27.35;;;20.55;;
45867;SDS011;31582;45.490;7.860;2023-03-01T14:12:00;31.35;;;21.40;;
45867;SDS011;31582;45.490;7.860;2023-03-01T14:19:57;29.70;;;21.00;;
45867;SDS011;31582;45.490;7.860;2023-03-01T14:22:29;29.95;;;21.08;;
45867;SDS011;31582;45.490;7.860;2023-03-01T14:25:00;30.02;;;20.42;;
45867;SDS011;31582;45.490;7.860;2023-03-01T14:27:36;27.00;;;20.48;;
45867;SDS011;31582;45.490;7.860;2023-03-01T14:30:19;26.83;;;19.45;;
45867;SDS011;31582;45.490;7.860;2023-03-01T14:32:55;25.70;;;19.65;;
45867;SDS011;31582;45.490;7.860;2023-03-01T14:35:31;26.08;;;20.20;;
45867;SDS011;31582;45.490;7.860;2023-03-01T14:38:01;24.50;;;19.25;;
45867;SDS011;31582;45.490;7.860;2023-03-01T14:42:56;28.20;;;20.70;;
45867;SDS011;31582;45.490;7.860;2023-03-01T14:45:29;32.10;;;22.75;;
45867;SDS011;31582;45.490;7.860;2023-03-01T14:48:00;28.77;;;20.20;;
45867;SDS011;31582;45.490;7.860;2023-03-01T14:50:33;31.70;;;23.75;;
45867;SDS011;31582;45.490;7.860;2023-03-01T14:53:04;27.45;;;19.38;;
45867;SDS011;31582;45.490;7.860;2023-03-01T14:55:38;27.65;;;19.77;;
45867;SDS011;31582;45.490;7.860;2023-03-01T14:58:17;29.48;;;21.00;;
45867;SDS011;31582;45.490;7.860;2023-03-01T15:00:50;29.93;;;21.43;;
45867;SDS011;31582;45.490;7.860;2023-03-01T15:03:26;29.45;;;20.75;;
45867;SDS011;31582;45.490;7.860;2023-03-01T15:06:01;30.58;;;21.65;;
45867;SDS011;31582;45.490;7.860;2023-03-01T15:08:30;33.20;;;22.67;;
45867;SDS011;31582;45.490;7.860;2023-03-01T15:13:35;35.95;;;25.27;;
45867;SDS011;31582;45.490;7.860;2023-03-01T15:16:03;39.15;;;26.83;;
45867;SDS011;31582;45.490;7.860;2023-03-01T15:18:49;40.33;;;27.63;;
45867;SDS011;31582;45.490;7.860;2023-03-01T15:21:38;39.33;;;26.98;;
45867;SDS011;31582;45.490;7.860;2023-03-01T15:27:04;40.75;;;27.73;;
45867;SDS011;31582;45.490;7.860;2023-03-01T15:29:33;47.95;;;32.05;;
45867;SDS011;31582;45.490;7.860;2023-03-01T15:32:23;45.87;;;30.50;;
45867;SDS011;31582;45.490;7.860;2023-03-01T15:34:51;39.50;;;26.23;;
45867;SDS011;31582;45.490;7.860;2023-03-01T15:40:21;32.95;;;23.90;;
45867;SDS011;31582;45.490;7.860;2023-03-01T15:43:01;33.53;;;24.17;;
45867;SDS011;31582;45.490;7.860;2023-03-01T15:45:32;34.22;;;23.55;;
45867;SDS011;31582;45.490;7.860;2023-03-01T15:48:00;34.13;;;23.73;;
45867;SDS011;31582;45.490;7.860;2023-03-01T15:53:05;31.80;;;22.25;;
45867;SDS011;31582;45.490;7.860;2023-03-01T15:55:37;31.92;;;22.85;;
45867;SDS011;31582;45.490;7.860;2023-03-01T15:58:20;32.33;;;22.98;;
45867;SDS011;31582;45.490;7.860;2023-03-01T16:00:53;29.85;;;21.00;;
45867;SDS011;31582;45.490;7.860;2023-03-01T16:03:27;28.45;;;20.80;;
45867;SDS011;31582;45.490;7.860;2023-03-01T16:05:54;28.90;;;20.83;;
45867;SDS011;31582;45.490;7.860;2023-03-01T16:08:22;29.08;;;20.17;;
45867;SDS011;31582;45.490;7.860;2023-03-01T16:10:49;29.73;;;20.40;;
45867;SDS011;31582;45.490;7.860;2023-03-01T16:13:17;39.50;;;24.93;;
45867;SDS011;31582;45.490;7.860;2023-03-01T16:15:45;36.67;;;25.50;;
45867;SDS011;31582;45.490;7.860;2023-03-01T16:18:12;29.40;;;21.40;;
45867;SDS011;31582;45.490;7.860;2023-03-01T16:20:40;29.17;;;19.80;;
45867;SDS011;31582;45.490;7.860;2023-03-01T16:23:08;27.77;;;20.67;;
45867;SDS011;31582;45.490;7.860;2023-03-01T16:25:37;29.98;;;22.23;;
45867;SDS011;31582;45.490;7.860;2023-03-01T16:28:04;31.23;;;21.23;;
45867;SDS011;31582;45.490;7.860;2023-03-01T16:30:37;32.15;;;20.17;;
45867;SDS011;31582;45.490;7.860;2023-03-01T16:33:06;30.83;;;20.63;;
45867;SDS011;31582;45.490;7.860;2023-03-01T16:35:56;29.42;;;20.08;;
45867;SDS011;31582;45.490;7.860;2023-03-01T16:38:26;28.58;;;19.50;;
45867;SDS011;31582;45.490;7.860;2023-03-01T16:40:53;32.10;;;21.67;;
45867;SDS011;31582;45.490;7.860;2023-03-01T16:43:20;41.60;;;24.23;;
45867;SDS011;31582;45.490;7.860;2023-03-01T16:45:47;50.78;;;28.08;;
45867;SDS011;31582;45.490;7.860;2023-03-01T16:48:14;48.77;;;28.53;;
45867;SDS011;31582;45.490;7.860;2023-03-01T16:50:41;40.70;;;24.92;;
45867;SDS011;31582;45.490;7.860;2023-03-01T16:53:08;41.88;;;28.23;;
45867;SDS011;31582;45.490;7.860;2023-03-01T16:55:35;57.00;;;36.50;;
45867;SDS011;31582;45.490;7.860;2023-03-01T16:58:04;42.28;;;28.65;;
45867;SDS011;31582;45.490;7.860;2023-03-01T17:00:31;37.67;;;26.63;;
45867;SDS011;31582;45.490;7.860;2023-03-01T17:02:58;42.33;;;32.70;;
45867;SDS011;31582;45.490;7.860;2023-03-01T17:05:25;33.80;;;24.52;;
45867;SDS011;31582;45.490;7.860;2023-03-01T17:07:53;35.80;;;24.35;;
45867;SDS011;31582;45.490;7.860;2023-03-01T17:10:23;30.83;;;22.02;;
45867;SDS011;31582;45.490;7.860;2023-03-01T17:12:50;39.35;;;26.42;;
45867;SDS011;31582;45.490;7.860;2023-03-01T17:15:18;36.37;;;25.70;;
45867;SDS011;31582;45.490;7.860;2023-03-01T17:17:45;43.40;;;32.92;;
45867;SDS011;31582;45.490;7.860;2023-03-01T17:20:14;87.40;;;55.85;;
45867;SDS011;31582;45.490;7.860;2023-03-01T17:22:41;44.15;;;28.92;;
45867;SDS011;31582;45.490;7.860;2023-03-01T17:25:09;35.83;;;25.30;;
45867;SDS011;31582;45.490;7.860;2023-03-01T17:27:37;33.88;;;24.35;;
45867;SDS011;31582;45.490;7.860;2023-03-01T17:30:06;35.33;;;24.65;;
45867;SDS011;31582;45.490;7.860;2023-03-01T17:32:34;35.63;;;24.77;;
45867;SDS011;31582;45.490;7.860;2023-03-01T17:35:01;35.97;;;25.25;;
45867;SDS011;31582;45.490;7.860;2023-03-01T17:37:29;34.85;;;24.00;;
45867;SDS011;31582;45.490;7.860;2023-03-01T17:39:56;34.38;;;23.38;;
45867;SDS011;31582;45.490;7.860;2023-03-01T17:42:22;35.13;;;24.33;;
45867;SDS011;31582;45.490;7.860;2023-03-01T17:44:49;33.15;;;22.20;;
45867;SDS011;31582;45.490;7.860;2023-03-01T17:47:16;31.42;;;22.00;;
45867;SDS011;31582;45.490;7.860;2023-03-01T17:49:43;30.98;;;21.92;;
45867;SDS011;31582;45.490;7.860;2023-03-01T17:52:11;34.00;;;24.55;;
45867;SDS011;31582;45.490;7.860;2023-03-01T17:54:37;37.45;;;25.25;;
45867;SDS011;31582;45.490;7.860;2023-03-01T17:57:05;36.65;;;24.83;;
45867;SDS011;31582;45.490;7.860;2023-03-01T17:59:34;38.63;;;26.20;;
45867;SDS011;31582;45.490;7.860;2023-03-01T18:02:02;35.95;;;25.52;;
45867;SDS011;31582;45.490;7.860;2023-03-01T18:04:29;38.70;;;26.00;;
45867;SDS011;31582;45.490;7.860;2023-03-01T18:06:57;35.78;;;23.42;;
45867;SDS011;31582;45.490;7.860;2023-03-01T18:09:27;32.60;;;22.50;;
45867;SDS011;31582;45.490;7.860;2023-03-01T18:11:55;33.20;;;21.65;;
45867;SDS011;31582;45.490;7.860;2023-03-01T18:14:23;31.55;;;22.92;;
45867;SDS011;31582;45.490;7.860;2023-03-01T18:16:54;34.13;;;23.50;;
45867;SDS011;31582;45.490;7.860;2023-03-01T18:19:21;31.80;;;22.15;;
45867;SDS011;31582;45.490;7.860;2023-03-01T18:21:48;32.53;;;23.10;;
45867;SDS011;31582;45.490;7.860;2023-03-01T18:24:15;34.67;;;23.40;;
45867;SDS011;31582;45.490;7.860;2023-03-01T18:26:42;38.15;;;24.48;;
45867;SDS011;31582;45.490;7.860;2023-03-01T18:29:09;40.92;;;26.58;;
45867;SDS011;31582;45.490;7.860;2023-03-01T18:31:36;39.90;;;25.42;;
45867;SDS011;31582;45.490;7.860;2023-03-01T18:34:04;36.90;;;25.53;;
45867;SDS011;31582;45.490;7.860;2023-03-01T18:36:33;42.40;;;27.48;;
45867;SDS011;31582;45.490;7.860;2023-03-01T18:39:02;36.67;;;24.60;;
45867;SDS011;31582;45.490;7.860;2023-03-01T18:41:30;36.30;;;24.35;;
45867;SDS011;31582;45.490;7.860;2023-03-01T18:43:58;33.33;;;23.92;;
45867;SDS011;31582;45.490;7.860;2023-03-01T18:46:26;34.28;;;23.83;;
45867;SDS011;31582;45.490;7.860;2023-03-01T18:48:53;37.03;;;25.10;;
45867;SDS011;31582;45.490;7.860;2023-03-01T18:51:26;39.25;;;27.08;;
45867;SDS011;31582;45.490;7.860;2023-03-01T18:53:54;36.35;;;25.02;;
45867;SDS011;31582;45.490;7.860;2023-03-01T18:56:24;37.05;;;24.65;;
45867;SDS011;31582;45.490;7.860;2023-03-01T18:58:52;34.47;;;24.60;;
45867;SDS011;31582;45.490;7.860;2023-03-01T19:01:22;34.92;;;22.85;;
45867;SDS011;31582;45.490;7.860;2023-03-01T19:03:51;32.15;;;21.15;;
45867;SDS011;31582;45.490;7.860;2023-03-01T19:06:19;31.33;;;21.27;;
45867;SDS011;31582;45.490;7.860;2023-03-01T19:08:48;31.45;;;20.92;;
45867;SDS011;31582;45.490;7.860;2023-03-01T19:11:16;28.30;;;19.27;;
45867;SDS011;31582;45.490;7.860;2023-03-01T19:13:44;32.08;;;21.65;;
45867;SDS011;31582;45.490;7.860;2023-03-01T19:16:13;31.42;;;21.35;;
45867;SDS011;31582;45.490;7.860;2023-03-01T19:18:44;29.77;;;20.83;;
45867;SDS011;31582;45.490;7.860;2023-03-01T19:21:20;34.15;;;22.17;;
45867;SDS011;31582;45.490;7.860;2023-03-01T19:23:50;31.58;;;22.08;;
45867;SDS011;31582;45.490;7.860;2023-03-01T19:26:19;32.10;;;22.67;;
45867;SDS011;31582;45.490;7.860;2023-03-01T19:28:49;34.40;;;23.58;;
45867;SDS011;31582;45.490;7.860;2023-03-01T19:31:19;35.17;;;24.85;;
45867;SDS011;31582;45.490;7.860;2023-03-01T19:33:49;36.33;;;24.52;;
45867;SDS011;31582;45.490;7.860;2023-03-01T19:36:20;38.50;;;26.77;;
45867;SDS011;31582;45.490;7.860;2023-03-01T19:38:47;40.88;;;25.80;;
45867;SDS011;31582;45.490;7.860;2023-03-01T19:41:17;38.17;;;24.90;;
45867;SDS011;31582;45.490;7.860;2023-03-01T19:43:47;38.38;;;25.05;;
45867;SDS011;31582;45.490;7.860;2023-03-01T19:46:14;35.20;;;23.47;;
45867;SDS011;31582;45.490;7.860;2023-03-01T19:48:41;35.28;;;23.38;;
45867;SDS011;31582;45.490;7.860;2023-03-01T19:51:10;34.67;;;23.33;;
45867;SDS011;31582;45.490;7.860;2023-03-01T19:53:38;34.65;;;23.50;;
45867;SDS011;31582;45.490;7.860;2023-03-01T19:56:07;36.80;;;25.33;;
45867;SDS011;31582;45.490;7.860;2023-03-01T19:58:34;41.70;;;29.30;;
45867;SDS011;31582;45.490;7.860;2023-03-01T20:01:02;35.20;;;24.55;;
45867;SDS011;31582;45.490;7.860;2023-03-01T20:03:31;37.83;;;24.77;;
45867;SDS011;31582;45.490;7.860;2023-03-01T20:06:06;39.10;;;26.50;;
45867;SDS011;31582;45.490;7.860;2023-03-01T20:08:35;38.17;;;24.93;;
45867;SDS011;31582;45.490;7.860;2023-03-01T20:11:03;39.88;;;26.00;;
45867;SDS011;31582;45.490;7.860;2023-03-01T20:13:32;33.15;;;22.60;;
45867;SDS011;31582;45.490;7.860;2023-03-01T20:16:00;37.53;;;25.20;;
45867;SDS011;31582;45.490;7.860;2023-03-01T20:18:33;36.00;;;24.00;;
45867;SDS011;31582;45.490;7.860;2023-03-01T20:21:01;36.88;;;24.15;;
45867;SDS011;31582;45.490;7.860;2023-03-01T20:23:46;39.72;;;25.10;;
45867;SDS011;31582;45.490;7.860;2023-03-01T20:26:13;39.60;;;26.38;;
45867;SDS011;31582;45.490;7.860;2023-03-01T20:28:45;39.08;;;25.40;;
45867;SDS011;31582;45.490;7.860;2023-03-01T20:31:14;37.38;;;25.17;;
45867;SDS011;31582;45.490;7.860;2023-03-01T20:33:42;37.95;;;26.17;;
45867;SDS011;31582;45.490;7.860;2023-03-01T20:36:12;38.30;;;25.83;;
45867;SDS011;31582;45.490;7.860;2023-03-01T20:38:39;44.97;;;28.08;;
45867;SDS011;31582;45.490;7.860;2023-03-01T20:41:10;45.95;;;29.15;;
45867;SDS011;31582;45.490;7.860;2023-03-01T20:43:41;43.42;;;27.42;;
45867;SDS011;31582;45.490;7.860;2023-03-01T20:46:10;41.77;;;27.17;;
45867;SDS011;31582;45.490;7.860;2023-03-01T20:48:41;42.95;;;27.20;;
45867;SDS011;31582;45.490;7.860;2023-03-01T20:51:11;43.70;;;27.85;;
45867;SDS011;31582;45.490;7.860;2023-03-01T20:53:40;40.15;;;26.20;;
45867;SDS011;31582;45.490;7.860;2023-03-01T20:56:08;38.55;;;26.13;;
45867;SDS011;31582;45.490;7.860;2023-03-01T20:58:38;38.17;;;25.67;;
45867;SDS011;31582;45.490;7.860;2023-03-01T21:01:06;36.80;;;25.48;;
45867;SDS011;31582;45.490;7.860;2023-03-01T21:03:34;33.25;;;23.23;;
45867;SDS011;31582;45.490;7.860;2023-03-01T21:06:02;33.63;;;23.33;;
45867;SDS011;31582;45.490;7.860;2023-03-01T21:08:31;34.72;;;24.95;;
45867;SDS011;31582;45.490;7.860;2023-03-01T21:11:00;34.97;;;24.55;;
45867;SDS011;31582;45.490;7.860;2023-03-01T21:13:32;36.97;;;25.35;;
45867;SDS011;31582;45.490;7.860;2023-03-01T21:16:01;36.85;;;25.15;;
45867;SDS011;31582;45.490;7.860;2023-03-01T21:18:33;42.30;;;28.48;;
45867;SDS011;31582;45.490;7.860;2023-03-01T21:21:03;43.80;;;29.02;;
45867;SDS011;31582;45.490;7.860;2023-03-01T21:23:33;41.50;;;27.83;;
45867;SDS011;31582;45.490;7.860;2023-03-01T21:26:03;37.28;;;26.95;;
45867;SDS011;31582;45.490;7.860;2023-03-01T21:28:41;40.13;;;27.98;;
45867;SDS011;31582;45.490;7.860;2023-03-01T21:31:13;42.10;;;27.58;;
45867;SDS011;31582;45.490;7.860;2023-03-01T21:33:45;35.72;;;24.13;;
45867;SDS011;31582;45.490;7.860;2023-03-01T21:36:14;36.60;;;26.02;;
45867;SDS011;31582;45.490;7.860;2023-03-01T21:38:41;36.58;;;25.33;;
45867;SDS011;31582;45.490;7.860;2023-03-01T21:41:10;40.00;;;27.80;;
45867;SDS011;31582;45.490;7.860;2023-03-01T21:43:58;38.42;;;26.38;;
45867;SDS011;31582;45.490;7.860;2023-03-01T21:46:27;39.95;;;25.80;;
45867;SDS011;31582;45.490;7.860;2023-03-01T21:48:56;40.45;;;27.83;;
45867;SDS011;31582;45.490;7.860;2023-03-01T21:51:25;41.67;;;29.92;;
45867;SDS011;31582;45.490;7.860;2023-03-01T21:53:54;43.45;;;29.88;;
45867;SDS011;31582;45.490;7.860;2023-03-01T21:56:22;43.10;;;29.33;;
45867;SDS011;31582;45.490;7.860;2023-03-01T21:58:51;42.60;;;28.30;;
45867;SDS011;31582;45.490;7.860;2023-03-01T22:01:20;44.55;;;30.88;;
45867;SDS011;31582;45.490;7.860;2023-03-01T22:03:57;41.33;;;28.33;;
45867;SDS011;31582;45.490;7.860;2023-03-01T22:06:26;35.00;;;25.17;;
45867;SDS011;31582;45.490;7.860;2023-03-01T22:08:57;40.45;;;26.70;;
45867;SDS011;31582;45.490;7.860;2023-03-01T22:11:26;57.88;;;35.75;;
45867;SDS011;31582;45.490;7.860;2023-03-01T22:13:54;42.60;;;27.15;;
45867;SDS011;31582;45.490;7.860;2023-03-01T22:16:23;35.57;;;24.53;;
45867;SDS011;31582;45.490;7.860;2023-03-01T22:18:53;40.60;;;27.33;;
45867;SDS011;31582;45.490;7.860;2023-03-01T22:21:21;39.60;;;27.33;;
45867;SDS011;31582;45.490;7.860;2023-03-01T22:23:50;35.75;;;25.15;;
45867;SDS011;31582;45.490;7.860;2023-03-01T22:26:25;35.40;;;25.08;;
45867;SDS011;31582;45.490;7.860;2023-03-01T22:28:54;37.20;;;25.08;;
45867;SDS011;31582;45.490;7.860;2023-03-01T22:31:23;36.90;;;25.00;;
45867;SDS011;31582;45.490;7.860;2023-03-01T22:33:50;38.55;;;25.52;;
45867;SDS011;31582;45.490;7.860;2023-03-01T22:36:18;38.17;;;25.95;;
45867;SDS011;31582;45.490;7.860;2023-03-01T22:38:46;36.88;;;25.35;;
45867;SDS011;31582;45.490;7.860;2023-03-01T22:41:12;38.33;;;26.65;;
45867;SDS011;31582;45.490;7.860;2023-03-01T22:43:40;37.92;;;26.27;;
45867;SDS011;31582;45.490;7.860;2023-03-01T22:46:13;39.63;;;26.40;;
45867;SDS011;31582;45.490;7.860;2023-03-01T22:48:43;40.30;;;26.70;;
45867;SDS011;31582;45.490;7.860;2023-03-01T22:51:24;42.80;;;28.75;;
45867;SDS011;31582;45.490;7.860;2023-03-01T22:53:54;76.75;;;45.75;;
45867;SDS011;31582;45.490;7.860;2023-03-01T22:56:23;63.07;;;38.50;;
45867;SDS011;31582;45.490;7.860;2023-03-01T22:58:57;62.35;;;40.10;;
45867;SDS011;31582;45.490;7.860;2023-03-01T23:01:24;43.13;;;28.57;;
45867;SDS011;31582;45.490;7.860;2023-03-01T23:03:52;40.33;;;26.83;;
45867;SDS011;31582;45.490;7.860;2023-03-01T23:06:20;41.35;;;27.77;;
45867;SDS011;31582;45.490;7.860;2023-03-01T23:08:48;41.35;;;28.25;;
45867;SDS011;31582;45.490;7.860;2023-03-01T23:11:17;39.10;;;27.05;;
45867;SDS011;31582;45.490;7.860;2023-03-01T23:13:45;41.15;;;28.05;;
45867;SDS011;31582;45.490;7.860;2023-03-01T23:16:12;40.42;;;27.08;;
45867;SDS011;31582;45.490;7.860;2023-03-01T23:18:39;40.05;;;26.42;;
45867;SDS011;31582;45.490;7.860;2023-03-01T23:21:11;41.67;;;27.88;;
45867;SDS011;31582;45.490;7.860;2023-03-01T23:23:45;40.80;;;27.35;;
45867;SDS011;31582;45.490;7.860;2023-03-01T23:26:12;38.85;;;27.95;;
45867;SDS011;31582;45.490;7.860;2023-03-01T23:28:40;41.22;;;27.13;;
45867;SDS011;31582;45.490;7.860;2023-03-01T23:31:09;41.25;;;27.00;;
45867;SDS011;31582;45.490;7.860;2023-03-01T23:33:39;40.58;;;26.60;;
45867;SDS011;31582;45.490;7.860;2023-03-01T23:38:48;41.60;;;27.48;;
45867;SDS011;31582;45.490;7.860;2023-03-01T23:41:20;41.35;;;28.08;;
45867;SDS011;31582;45.490;7.860;2023-03-01T23:43:51;40.45;;;28.25;;
45867;SDS011;31582;45.490;7.860;2023-03-01T23:46:20;36.27;;;26.30;;
45867;SDS011;31582;45.490;7.860;2023-03-01T23:48:49;40.85;;;27.15;;
45867;SDS011;31582;45.490;7.860;2023-03-01T23:51:18;39.65;;;26.75;;